createdAt,value
2019-05-07T00:01:18.586Z,10.35
2019-05-07T00:03:49.078Z,8.10
2019-05-07T00:06:19.279Z,10.10
2019-05-07T00:08:52.154Z,9.65
2019-05-07T00:11:22.634Z,9.85
2019-05-07T00:13:53.129Z,8.70
2019-05-07T00:16:23.726Z,10.75
2019-05-07T00:18:54.131Z,8.13
2019-05-07T00:21:24.393Z,8.65
2019-05-07T00:23:54.479Z,9.48
2019-05-07T00:26:25.068Z,9.18
2019-05-07T00:28:55.177Z,9.10
2019-05-07T00:31:25.936Z,13.50
2019-05-07T00:33:57.474Z,9.63
2019-05-07T00:36:48.589Z,7.75
2019-05-07T00:39:27.079Z,10.90
2019-05-07T00:42:28.865Z,13.13
2019-05-07T00:45:16.921Z,15.53
2019-05-07T00:47:38.933Z,9.03
2019-05-07T00:50:14.899Z,9.48
2019-05-07T00:52:45.285Z,8.98
2019-05-07T00:55:15.785Z,8.68
2019-05-07T00:57:47.185Z,9.18
2019-05-07T01:00:17.450Z,13.03
2019-05-07T01:02:52.521Z,7.75
2019-05-07T01:05:27.540Z,10.43
2019-05-07T01:07:58.705Z,11.38
2019-05-07T01:10:29.684Z,11.65
2019-05-07T01:12:59.919Z,12.37
2019-05-07T01:15:32.109Z,9.68
2019-05-07T01:18:03.389Z,10.72
2019-05-07T01:20:33.918Z,9.45
2019-05-07T01:23:04.321Z,9.68
2019-05-07T01:25:35.016Z,10.13
2019-05-07T01:28:06.016Z,8.48
2019-05-07T01:30:36.321Z,11.20
2019-05-07T01:33:17.350Z,9.43
2019-05-07T01:36:06.890Z,9.33
2019-05-07T01:38:37.243Z,8.53
2019-05-07T01:41:07.659Z,8.33
2019-05-07T01:43:38.383Z,9.28
2019-05-07T01:46:09.489Z,12.50
2019-05-07T01:48:39.805Z,9.03
2019-05-07T01:51:10.073Z,10.75
2019-05-07T01:53:43.017Z,9.88
2019-05-07T01:56:13.361Z,10.55
2019-05-07T01:58:43.887Z,9.93
2019-05-07T02:01:14.431Z,10.38
2019-05-07T02:04:12.845Z,10.25
2019-05-07T02:07:02.864Z,11.95
2019-05-07T02:09:39.792Z,8.15
2019-05-07T02:12:23.179Z,10.80
2019-05-07T02:14:53.300Z,10.82
2019-05-07T02:17:24.579Z,11.43
2019-05-07T02:19:54.983Z,7.97
2019-05-07T02:22:25.581Z,10.08
2019-05-07T02:24:56.150Z,11.33
2019-05-07T02:27:26.280Z,9.18
2019-05-07T02:29:57.094Z,10.03
2019-05-07T02:32:27.281Z,10.18
2019-05-07T02:34:57.536Z,9.48
2019-05-07T02:37:46.921Z,9.88
2019-05-07T02:40:15.316Z,9.23
2019-05-07T02:42:45.553Z,10.40
2019-05-07T02:45:33.221Z,11.70
2019-05-07T02:48:03.886Z,10.78
2019-05-07T02:50:39.846Z,11.28
2019-05-07T02:53:29.595Z,10.25
2019-05-07T02:56:03.345Z,14.38
2019-05-07T02:58:33.082Z,8.43
2019-05-07T03:01:05.065Z,13.98
2019-05-07T03:03:35.629Z,11.53
2019-05-07T03:06:05.789Z,10.98
2019-05-07T03:08:36.341Z,8.25
2019-05-07T03:11:06.808Z,9.83
2019-05-07T03:13:37.412Z,10.65
2019-05-07T03:16:07.897Z,10.88
2019-05-07T03:18:38.583Z,10.30
2019-05-07T03:21:14.112Z,10.98
2019-05-07T03:23:53.884Z,14.55
2019-05-07T03:26:30.113Z,10.72
2019-05-07T03:29:04.032Z,9.65
2019-05-07T03:31:47.263Z,11.08
2019-05-07T03:34:37.230Z,15.25
2019-05-07T03:37:09.186Z,10.90
2019-05-07T03:39:42.947Z,11.10
2019-05-07T03:42:13.029Z,11.48
2019-05-07T03:44:53.778Z,9.58
2019-05-07T03:47:28.666Z,9.43
2019-05-07T03:50:02.978Z,11.35
2019-05-07T03:52:33.539Z,12.90
2019-05-07T03:55:04.138Z,12.05
2019-05-07T03:57:34.396Z,9.20
2019-05-07T04:00:05.282Z,9.88
2019-05-07T04:02:35.640Z,13.05
2019-05-07T04:05:06.631Z,10.20
2019-05-07T04:07:55.880Z,8.33
2019-05-07T04:10:25.991Z,9.48
2019-05-07T04:12:56.421Z,10.00
2019-05-07T04:15:26.601Z,12.60
2019-05-07T04:17:57.389Z,11.38
2019-05-07T04:20:27.721Z,10.98
2019-05-07T04:22:57.907Z,9.70
2019-05-07T04:25:47.705Z,11.55
2019-05-07T04:28:54.107Z,12.18
2019-05-07T04:31:26.190Z,9.10
2019-05-07T04:33:58.115Z,12.50
2019-05-07T04:36:34.191Z,11.35
2019-05-07T04:39:03.583Z,10.05
2019-05-07T04:41:34.883Z,13.30
2019-05-07T04:44:06.143Z,9.58
2019-05-07T04:46:36.703Z,12.20
2019-05-07T04:49:08.032Z,12.93
2019-05-07T04:51:47.462Z,10.10
2019-05-07T04:54:17.627Z,10.80
2019-05-07T04:56:47.803Z,11.40
2019-05-07T04:59:17.933Z,10.30
2019-05-07T05:01:54.235Z,9.90
2019-05-07T05:04:30.156Z,11.20
2019-05-07T05:06:57.586Z,9.55
2019-05-07T05:09:28.017Z,9.63
2019-05-07T05:11:58.921Z,12.53
2019-05-07T05:14:29.586Z,11.22
2019-05-07T05:17:01.938Z,10.23
2019-05-07T05:19:32.290Z,9.13
2019-05-07T05:22:22.186Z,9.13
2019-05-07T05:25:12.134Z,9.88
2019-05-07T05:27:43.036Z,9.48
2019-05-07T05:30:17.747Z,9.98
2019-05-07T05:32:47.964Z,12.68
2019-05-07T05:35:18.016Z,12.80
2019-05-07T05:37:48.308Z,15.15
2019-05-07T05:40:19.122Z,12.23
2019-05-07T05:42:55.900Z,14.53
2019-05-07T05:45:38.380Z,9.93
2019-05-07T05:48:08.825Z,14.83
2019-05-07T05:50:53.666Z,12.63
2019-05-07T05:53:43.539Z,11.70
2019-05-07T05:56:23.492Z,12.90
2019-05-07T05:59:12.108Z,12.60
2019-05-07T06:01:53.312Z,14.35
2019-05-07T06:04:42.030Z,11.88
2019-05-07T06:07:22.773Z,11.70
2019-05-07T06:10:22.480Z,11.57
2019-05-07T06:13:14.782Z,12.80
2019-05-07T06:15:55.047Z,13.10
2019-05-07T06:18:54.348Z,11.83
2019-05-07T06:21:49.691Z,10.98
2019-05-07T06:24:32.036Z,14.25
2019-05-07T06:27:03.531Z,12.18
2019-05-07T06:29:33.610Z,13.58
2019-05-07T06:32:04.766Z,13.83
2019-05-07T06:34:35.543Z,11.93
2019-05-07T06:37:06.283Z,11.83
2019-05-07T06:39:52.953Z,12.58
2019-05-07T06:45:25.471Z,11.35
2019-05-07T06:47:55.581Z,9.90
2019-05-07T06:50:25.710Z,11.63
2019-05-07T06:52:56.360Z,12.93
2019-05-07T06:55:26.462Z,9.90
2019-05-07T06:57:57.077Z,12.90
2019-05-07T07:00:45.947Z,11.12
2019-05-07T07:03:25.791Z,13.45
2019-05-07T07:06:14.443Z,15.23
2019-05-07T07:08:56.681Z,12.78
2019-05-07T07:11:42.366Z,13.40
2019-05-07T07:14:12.630Z,12.85
2019-05-07T07:16:42.955Z,12.40
2019-05-07T07:19:13.135Z,14.98
2019-05-07T07:21:43.392Z,17.90
2019-05-07T07:24:14.331Z,13.75
2019-05-07T07:26:44.803Z,11.40
2019-05-07T07:29:16.553Z,13.93
2019-05-07T07:31:58.925Z,12.73
2019-05-07T07:34:33.270Z,12.37
2019-05-07T07:37:28.620Z,16.52
2019-05-07T07:40:28.754Z,13.88
2019-05-07T07:42:59.224Z,12.63
2019-05-07T07:45:32.277Z,16.30
2019-05-07T07:48:02.415Z,12.03
2019-05-07T07:50:33.185Z,12.88
2019-05-07T07:53:03.677Z,12.37
2019-05-07T07:55:39.162Z,16.15
2019-05-07T07:58:16.489Z,15.45
2019-05-07T08:00:53.533Z,13.15
2019-05-07T08:03:23.952Z,14.25
2019-05-07T08:05:54.222Z,13.98
2019-05-07T08:08:25.194Z,12.03
2019-05-07T08:10:55.677Z,13.65
2019-05-07T08:13:27.064Z,12.18
2019-05-07T08:15:57.498Z,15.28
2019-05-07T08:18:27.834Z,15.50
2019-05-07T08:20:58.214Z,13.00
2019-05-07T08:23:28.300Z,13.35
2019-05-07T08:25:58.382Z,14.50
2019-05-07T08:28:28.683Z,14.78
2019-05-07T08:31:22.614Z,12.78
2019-05-07T08:33:59.423Z,11.10
2019-05-07T08:36:29.703Z,9.75
2019-05-07T08:39:02.229Z,9.45
2019-05-07T08:41:33.841Z,13.15
2019-05-07T08:44:12.188Z,15.95
2019-05-07T08:46:47.285Z,15.43
2019-05-07T08:49:17.925Z,10.93
2019-05-07T08:52:02.996Z,9.88
2019-05-07T08:54:33.990Z,9.45
2019-05-07T08:57:04.143Z,7.40
2019-05-07T08:59:35.114Z,6.92
2019-05-07T09:02:06.263Z,11.00
2019-05-07T09:04:36.396Z,8.45
2019-05-07T09:07:06.819Z,7.20
2019-05-07T09:09:37.125Z,8.70
2019-05-07T09:12:07.311Z,9.43
2019-05-07T09:14:37.668Z,8.43
2019-05-07T09:17:07.843Z,7.65
2019-05-07T09:19:48.326Z,7.60
2019-05-07T09:22:12.499Z,7.80
2019-05-07T09:24:42.674Z,8.48
2019-05-07T09:27:25.414Z,8.53
2019-05-07T09:30:15.470Z,7.03
2019-05-07T09:32:59.503Z,8.15
2019-05-07T09:35:49.814Z,7.85
2019-05-07T09:38:22.183Z,6.35
2019-05-07T09:40:52.634Z,5.05
2019-05-07T09:43:23.136Z,6.03
2019-05-07T09:45:53.464Z,6.65
2019-05-07T09:48:24.088Z,7.70
2019-05-07T09:50:54.348Z,7.47
2019-05-07T09:53:25.740Z,6.92
2019-05-07T09:55:55.944Z,6.30
2019-05-07T09:58:35.841Z,7.12
2019-05-07T10:00:59.095Z,9.70
2019-05-07T10:03:29.309Z,5.85
2019-05-07T10:06:02.058Z,6.12
2019-05-07T10:08:32.406Z,7.15
2019-05-07T10:11:04.394Z,8.80
2019-05-07T10:13:42.795Z,6.15
2019-05-07T10:16:15.825Z,5.53
2019-05-07T10:18:46.420Z,6.30
2019-05-07T10:21:16.502Z,5.28
2019-05-07T10:23:46.729Z,4.97
2019-05-07T10:26:17.272Z,6.90
2019-05-07T10:28:47.535Z,5.22
2019-05-07T10:31:18.110Z,6.92
2019-05-07T10:33:48.268Z,5.17
2019-05-07T10:36:18.459Z,6.35
2019-05-07T10:38:49.035Z,5.00
2019-05-07T10:41:19.332Z,5.05
2019-05-07T10:43:51.950Z,4.28
2019-05-07T10:46:31.954Z,4.62
2019-05-07T10:49:22.607Z,4.08
2019-05-07T10:51:53.346Z,3.72
2019-05-07T10:54:23.799Z,4.08
2019-05-07T10:56:53.903Z,4.00
2019-05-07T10:59:24.616Z,2.98
2019-05-07T11:02:07.432Z,4.75
2019-05-07T11:04:42.790Z,3.87
2019-05-07T11:07:11.344Z,4.80
2019-05-07T11:09:42.017Z,5.92
2019-05-07T11:12:12.805Z,4.30
2019-05-07T11:14:43.025Z,5.55
2019-05-07T11:17:38.733Z,5.50
2019-05-07T11:20:09.273Z,6.78
2019-05-07T11:22:39.635Z,6.53
2019-05-07T11:25:11.887Z,4.85
2019-05-07T11:27:42.436Z,4.90
2019-05-07T11:30:14.087Z,4.50
2019-05-07T11:32:44.621Z,4.35
2019-05-07T11:35:14.940Z,5.65
2019-05-07T11:37:45.168Z,4.42
2019-05-07T11:40:16.107Z,3.65
2019-05-07T11:43:05.284Z,6.12
2019-05-07T11:45:47.752Z,5.42
2019-05-07T11:48:19.371Z,4.25
2019-05-07T11:51:04.642Z,4.15
2019-05-07T11:53:35.512Z,4.40
2019-05-07T11:56:06.132Z,5.95
2019-05-07T11:58:36.809Z,7.67
2019-05-07T12:01:12.603Z,4.83
2019-05-07T12:03:43.685Z,6.53
2019-05-07T12:06:14.687Z,6.20
2019-05-07T12:08:51.664Z,5.85
2019-05-07T12:11:17.158Z,5.62
2019-05-07T12:13:47.474Z,6.47
2019-05-07T12:16:18.133Z,5.05
2019-05-07T12:18:48.509Z,4.83
2019-05-07T12:21:23.516Z,5.05
2019-05-07T12:23:52.525Z,6.58
2019-05-07T12:26:23.559Z,4.78
2019-05-07T12:28:54.141Z,6.55
2019-05-07T12:31:46.468Z,4.37
2019-05-07T12:34:27.089Z,5.37
2019-05-07T12:36:58.062Z,4.70
2019-05-07T12:39:29.266Z,4.33
2019-05-07T12:42:01.248Z,5.35
2019-05-07T12:44:32.041Z,5.42
2019-05-07T12:47:05.879Z,6.03
2019-05-07T12:49:36.975Z,5.92
2019-05-07T12:52:19.572Z,5.58
2019-05-07T12:55:03.242Z,5.55
2019-05-07T12:57:33.754Z,3.83
2019-05-07T13:00:22.964Z,7.70
2019-05-07T13:03:16.743Z,4.60
2019-05-07T13:05:47.109Z,6.60
2019-05-07T13:08:18.583Z,4.28
2019-05-07T13:10:51.760Z,4.45
2019-05-07T13:13:22.183Z,6.17
2019-05-07T13:15:52.617Z,4.75
2019-05-07T13:18:22.988Z,5.05
2019-05-07T13:20:53.338Z,3.67
2019-05-07T13:23:24.836Z,5.72
2019-05-07T13:25:55.402Z,5.08
2019-05-07T13:28:25.686Z,6.05
2019-05-07T13:30:56.717Z,4.62
2019-05-07T13:33:28.776Z,6.72
2019-05-07T13:35:59.426Z,6.47
2019-05-07T13:38:54.507Z,5.75
2019-05-07T13:41:59.365Z,5.72
2019-05-07T13:44:44.670Z,5.50
2019-05-07T13:47:33.139Z,5.30
2019-05-07T13:50:03.402Z,5.35
2019-05-07T13:52:34.994Z,6.75
2019-05-07T13:55:05.949Z,8.08
2019-05-07T13:57:36.410Z,7.67
2019-05-07T14:00:12.840Z,6.20
2019-05-07T14:02:43.169Z,6.08
2019-05-07T14:05:14.351Z,5.97
2019-05-07T14:07:44.979Z,5.62
2019-05-07T14:10:15.644Z,6.95
2019-05-07T14:12:46.271Z,7.47
2019-05-07T14:15:17.212Z,6.47
2019-05-07T14:17:47.647Z,6.67
2019-05-07T14:20:18.354Z,6.42
2019-05-07T14:22:48.649Z,5.30
2019-05-07T14:25:19.108Z,6.92
2019-05-07T14:27:49.234Z,6.75
2019-05-07T14:30:21.691Z,4.90
2019-05-07T14:32:58.908Z,6.12
2019-05-07T14:35:54.684Z,5.30
2019-05-07T14:38:52.851Z,6.55
2019-05-07T14:41:25.785Z,6.15
2019-05-07T14:44:04.571Z,7.03
2019-05-07T14:46:44.503Z,7.70
2019-05-07T14:49:07.311Z,5.08
2019-05-07T14:51:37.679Z,7.12
2019-05-07T14:54:08.729Z,6.08
2019-05-07T14:56:39.392Z,6.30
2019-05-07T14:59:09.833Z,5.15
2019-05-07T15:01:55.497Z,7.62
2019-05-07T15:04:34.139Z,7.55
2019-05-07T15:09:36.296Z,6.15
2019-05-07T15:12:07.018Z,7.08
2019-05-07T15:14:42.139Z,5.72
2019-05-07T15:17:22.307Z,6.15
2019-05-07T15:19:53.275Z,7.30
2019-05-07T15:22:49.223Z,7.45
2019-05-07T15:25:15.605Z,5.83
2019-05-07T15:27:47.916Z,6.10
2019-05-07T15:30:18.899Z,5.10
2019-05-07T15:32:49.065Z,5.90
2019-05-07T15:35:19.275Z,4.97
2019-05-07T15:37:51.680Z,7.00
2019-05-07T15:40:22.530Z,5.90
2019-05-07T15:42:53.267Z,6.45
2019-05-07T15:45:23.898Z,6.08
2019-05-07T15:47:56.039Z,7.55
2019-05-07T15:50:28.885Z,5.53
2019-05-07T15:53:21.978Z,5.00
2019-05-07T15:55:52.566Z,5.53
2019-05-07T15:58:23.497Z,5.05
2019-05-07T16:00:53.734Z,6.03
2019-05-07T16:03:32.830Z,3.75
2019-05-07T16:06:03.843Z,9.13
2019-05-07T16:08:38.214Z,6.00
2019-05-07T16:11:12.565Z,6.12
2019-05-07T16:13:49.004Z,7.05
2019-05-07T16:16:23.571Z,6.10
2019-05-07T16:19:12.489Z,5.10
2019-05-07T16:21:42.661Z,6.80
2019-05-07T16:24:14.020Z,7.25
2019-05-07T16:26:47.122Z,6.60
2019-05-07T16:29:17.737Z,6.10
2019-05-07T16:31:48.896Z,5.47
2019-05-07T16:34:22.031Z,6.67
2019-05-07T16:36:52.210Z,7.03
2019-05-07T16:39:22.405Z,4.75
2019-05-07T16:41:52.751Z,4.90
2019-05-07T16:44:23.162Z,6.75
2019-05-07T16:46:53.710Z,4.83
2019-05-07T16:49:24.635Z,6.37
2019-05-07T16:51:54.951Z,4.58
2019-05-07T16:54:25.207Z,5.17
2019-05-07T16:57:17.130Z,5.12
2019-05-07T16:59:47.498Z,5.90
2019-05-07T17:02:22.995Z,4.58
2019-05-07T17:05:05.874Z,5.10
2019-05-07T17:07:39.291Z,6.45
2019-05-07T17:10:11.674Z,4.30
2019-05-07T17:12:43.752Z,5.05
2019-05-07T17:15:17.240Z,4.15
2019-05-07T17:17:50.746Z,5.72
2019-05-07T17:20:22.037Z,5.22
2019-05-07T17:22:52.627Z,5.72
2019-05-07T17:25:38.562Z,5.60
2019-05-07T17:28:09.661Z,7.90
2019-05-07T17:30:42.106Z,5.10
2019-05-07T17:33:12.803Z,6.12
2019-05-07T17:35:45.867Z,7.37
2019-05-07T17:38:16.050Z,4.53
2019-05-07T17:40:46.660Z,4.92
2019-05-07T17:43:17.309Z,6.12
2019-05-07T17:45:47.892Z,4.90
2019-05-07T17:48:18.211Z,6.87
2019-05-07T17:51:01.270Z,6.60
2019-05-07T17:53:32.130Z,5.15
2019-05-07T17:56:05.914Z,6.60
2019-05-07T17:58:37.372Z,5.78
2019-05-07T18:01:08.458Z,5.65
2019-05-07T18:03:39.319Z,6.78
2019-05-07T18:06:12.349Z,6.30
2019-05-07T18:08:42.572Z,7.45
2019-05-07T18:11:20.938Z,7.72
2019-05-07T18:13:46.153Z,6.75
2019-05-07T18:16:35.858Z,8.55
2019-05-07T18:19:06.167Z,6.42
2019-05-07T18:21:36.919Z,8.88
2019-05-07T18:24:13.712Z,4.45
2019-05-07T18:26:39.294Z,7.08
2019-05-07T18:29:11.803Z,8.33
2019-05-07T18:31:50.738Z,7.97
2019-05-07T18:34:22.114Z,6.60
2019-05-07T18:36:53.062Z,5.87
2019-05-07T18:39:23.935Z,7.37
2019-05-07T18:41:54.260Z,4.30
2019-05-07T18:44:26.426Z,6.47
2019-05-07T18:46:56.767Z,7.78
2019-05-07T18:49:27.091Z,4.92
2019-05-07T18:51:57.354Z,4.83
2019-05-07T18:54:31.292Z,6.10
2019-05-07T18:56:59.544Z,5.62
2019-05-07T18:59:31.861Z,5.33
2019-05-07T19:02:03.763Z,4.22
2019-05-07T19:04:34.540Z,5.72
2019-05-07T19:07:04.840Z,5.00
2019-05-07T19:09:35.373Z,4.70
2019-05-07T19:12:07.275Z,6.85
2019-05-07T19:14:37.940Z,6.65
2019-05-07T19:17:08.539Z,4.50
2019-05-07T19:19:41.865Z,4.28
2019-05-07T19:22:12.164Z,5.58
2019-05-07T19:24:47.872Z,8.50
2019-05-07T19:27:14.768Z,6.60
2019-05-07T19:29:45.926Z,5.20
2019-05-07T19:32:17.271Z,5.65
2019-05-07T19:34:47.709Z,6.95
2019-05-07T19:37:17.945Z,6.35
2019-05-07T19:39:48.212Z,8.70
2019-05-07T19:42:18.337Z,6.80
2019-05-07T19:44:49.093Z,6.90
2019-05-07T19:47:19.218Z,6.87
2019-05-07T19:49:49.484Z,8.58
2019-05-07T19:52:19.778Z,9.68
2019-05-07T19:54:58.909Z,7.30
2019-05-07T19:57:26.941Z,9.90
2019-05-07T19:59:57.398Z,6.47
2019-05-07T20:02:32.255Z,7.75
2019-05-07T20:05:03.704Z,9.65
2019-05-07T20:07:33.997Z,5.87
2019-05-07T20:10:04.465Z,11.28
2019-05-07T20:12:34.643Z,9.93
2019-05-07T20:15:05.735Z,8.85
2019-05-07T20:17:35.870Z,11.28
2019-05-07T20:20:07.950Z,8.93
2019-05-07T20:22:38.223Z,7.28
2019-05-07T20:25:18.539Z,7.22
2019-05-07T20:27:42.006Z,7.95
2019-05-07T20:30:13.207Z,5.90
2019-05-07T20:32:43.579Z,7.12
2019-05-07T20:35:14.113Z,6.87
2019-05-07T20:37:44.526Z,9.10
2019-05-07T20:40:15.145Z,7.78
2019-05-07T20:42:45.357Z,7.90
2019-05-07T20:45:16.020Z,8.85
2019-05-07T20:47:46.143Z,9.28
2019-05-07T20:50:16.755Z,8.33
2019-05-07T20:52:46.888Z,7.25
2019-05-07T20:55:31.523Z,7.47
2019-05-07T20:58:02.905Z,5.42
2019-05-07T21:00:32.766Z,8.85
2019-05-07T21:03:23.820Z,10.08
2019-05-07T21:05:53.938Z,9.90
2019-05-07T21:08:24.209Z,10.28
2019-05-07T21:10:54.340Z,11.05
2019-05-07T21:13:31.040Z,10.68
2019-05-07T21:15:58.435Z,8.15
2019-05-07T21:18:29.243Z,9.70
2019-05-07T21:20:59.446Z,11.88
2019-05-07T21:23:32.452Z,11.78
2019-05-07T21:26:02.370Z,10.05
2019-05-07T21:28:33.950Z,9.13
2019-05-07T21:31:04.507Z,8.55
2019-05-07T21:33:34.684Z,9.08
2019-05-07T21:36:05.158Z,10.23
2019-05-07T21:38:35.247Z,12.75
2019-05-07T21:41:05.827Z,13.05
2019-05-07T21:43:36.187Z,10.38
2019-05-07T21:46:06.416Z,9.53
2019-05-07T21:48:36.520Z,9.80
2019-05-07T21:51:06.696Z,10.48
2019-05-07T21:53:43.044Z,9.63
2019-05-07T21:56:38.783Z,9.53
2019-05-07T21:59:13.103Z,11.03
2019-05-07T22:01:48.779Z,10.60
2019-05-07T22:04:19.064Z,8.75
2019-05-07T22:06:49.535Z,9.83
2019-05-07T22:09:32.872Z,9.23
2019-05-07T22:12:05.617Z,9.45
2019-05-07T22:14:57.598Z,12.55
2019-05-07T22:17:46.154Z,10.15
2019-05-07T22:20:17.016Z,11.78
2019-05-07T22:22:47.137Z,10.00
2019-05-07T22:25:17.892Z,9.48
2019-05-07T22:27:50.281Z,11.28
2019-05-07T22:30:26.932Z,11.00
2019-05-07T22:33:02.578Z,10.80
2019-05-07T22:35:36.376Z,11.10
2019-05-07T22:38:12.176Z,11.65
2019-05-07T22:40:44.390Z,10.08
2019-05-07T22:43:15.482Z,11.80
2019-05-07T22:45:46.418Z,10.88
2019-05-07T22:48:17.050Z,12.75
2019-05-07T22:50:47.578Z,11.85
2019-05-07T22:53:17.801Z,11.25
2019-05-07T22:55:47.872Z,11.73
2019-05-07T22:58:24.023Z,9.83
2019-05-07T23:01:02.508Z,12.88
2019-05-07T23:03:33.269Z,13.78
2019-05-07T23:06:07.679Z,10.68
2019-05-07T23:08:42.148Z,11.70
2019-05-07T23:11:12.206Z,13.08
2019-05-07T23:13:43.890Z,10.15
2019-05-07T23:16:14.727Z,9.15
2019-05-07T23:18:45.141Z,10.23
2019-05-07T23:21:17.012Z,11.50
2019-05-07T23:23:47.495Z,10.90
2019-05-07T23:26:18.092Z,8.98
2019-05-07T23:28:48.363Z,12.07
2019-05-07T23:31:18.417Z,11.75
2019-05-07T23:33:48.776Z,9.88
2019-05-07T23:36:19.665Z,11.78
2019-05-07T23:38:52.078Z,12.07
2019-05-07T23:42:02.128Z,10.85
2019-05-07T23:44:31.870Z,12.93
2019-05-07T23:47:02.894Z,13.72
2019-05-07T23:49:33.091Z,10.45
2019-05-07T23:52:03.990Z,8.68
2019-05-07T23:54:34.527Z,12.28
2019-05-07T23:57:09.523Z,10.15
2019-05-07T23:59:36.841Z,10.90
